Huoshan, China
Current Conditions -  °F | °C
As of 8:00 AM on Saturday 25 Oct 2014 (Local Time) from ZSOF Reporting Station
Haze Haze  
Wind Chill: 63°   Ceiling: Unl
Heat Index: 63°   Visibility: 2.5mi
Dew Point: 57°   Wind: 4mph
Humidity: 82%   Direction: 150°SSE
Pressure: 30.03"   Gusts: NA
Location:  31.4°N, 116.33°E
Report Text: ZSOF 250000Z 15002MPS 4000 BR NSC 17/14 Q1017 NOSIG
Loading
Personal Weather Stations






























Interactive Weather Map
Tropical Storm Tracking
New forecast layout! Learn more

10-Day Weather Forecast

Advertisements
Track Severe Weather on mobile